createdAt,value
2022-10-29T00:01:13.979Z,11.00
2022-10-29T00:03:42.387Z,14.50
2022-10-29T00:06:13.162Z,12.57
2022-10-29T00:08:42.865Z,9.17
2022-10-29T00:11:20.450Z,10.73
2022-10-29T00:13:54.053Z,12.10
2022-10-29T00:16:24.645Z,12.17
2022-10-29T00:18:53.019Z,9.70
2022-10-29T00:21:24.246Z,10.70
2022-10-29T00:23:53.653Z,10.70
2022-10-29T00:26:24.015Z,13.20
2022-10-29T00:28:57.602Z,12.87
2022-10-29T00:31:26.631Z,14.47
2022-10-29T00:33:56.755Z,14.33
2022-10-29T00:36:28.141Z,12.40
2022-10-29T00:38:58.217Z,8.50
2022-10-29T00:41:29.939Z,9.20
2022-10-29T00:44:17.746Z,9.97
2022-10-29T00:46:50.578Z,10.27
2022-10-29T00:49:19.544Z,9.50
2022-10-29T00:51:48.679Z,8.10
2022-10-29T00:54:18.426Z,10.73
2022-10-29T00:56:56.315Z,7.77
2022-10-29T00:59:25.267Z,8.43
2022-10-29T01:01:54.763Z,8.53
2022-10-29T01:04:24.512Z,9.90
2022-10-29T01:06:54.003Z,8.90
2022-10-29T01:09:22.341Z,10.40
2022-10-29T01:12:19.641Z,11.00
2022-10-29T01:15:41.885Z,10.07
2022-10-29T01:18:16.146Z,8.10
2022-10-29T01:20:59.420Z,9.90
2022-10-29T01:23:49.221Z,9.30
2022-10-29T01:26:23.309Z,10.83
2022-10-29T01:28:54.771Z,9.40
2022-10-29T01:31:39.282Z,9.17
2022-10-29T01:34:31.741Z,13.37
2022-10-29T01:37:09.907Z,9.80
2022-10-29T01:39:56.118Z,7.80
2022-10-29T01:42:39.826Z,8.70
2022-10-29T01:45:19.286Z,8.90
2022-10-29T01:47:55.416Z,8.60
2022-10-29T01:50:25.995Z,10.30
2022-10-29T01:52:55.953Z,10.50
2022-10-29T01:55:30.938Z,8.30
2022-10-29T01:58:00.036Z,10.30
2022-10-29T02:00:31.322Z,10.00
2022-10-29T02:03:07.202Z,13.50
2022-10-29T02:05:47.959Z,9.23
2022-10-29T02:08:44.307Z,7.97
2022-10-29T02:11:24.865Z,8.60
2022-10-29T02:14:13.514Z,11.47
2022-10-29T02:16:42.677Z,10.80
2022-10-29T02:19:11.238Z,11.50
2022-10-29T02:21:41.402Z,8.83
2022-10-29T02:24:10.047Z,15.30
2022-10-29T02:26:38.575Z,9.57
2022-10-29T02:29:06.968Z,9.37
2022-10-29T02:31:37.030Z,13.00
2022-10-29T02:34:05.398Z,8.50
2022-10-29T02:36:33.939Z,12.00
2022-10-29T02:39:02.337Z,12.17
2022-10-29T02:41:30.759Z,8.97
2022-10-29T02:43:59.127Z,13.90
2022-10-29T02:46:28.068Z,12.53
2022-10-29T02:48:56.675Z,15.27
2022-10-29T02:51:25.201Z,9.07
2022-10-29T02:53:53.561Z,9.83
2022-10-29T02:56:21.908Z,9.17
2022-10-29T02:58:50.316Z,8.60
2022-10-29T03:01:18.929Z,9.20
2022-10-29T03:03:47.621Z,9.50
2022-10-29T03:06:17.971Z,10.30
2022-10-29T03:08:47.148Z,11.40
2022-10-29T03:11:15.821Z,11.50
2022-10-29T03:13:44.578Z,10.10
2022-10-29T03:16:12.901Z,10.50
2022-10-29T03:18:41.285Z,16.30
2022-10-29T03:21:09.810Z,10.57
2022-10-29T03:23:38.278Z,16.87
2022-10-29T03:26:06.926Z,12.70
2022-10-29T03:28:35.510Z,17.23
2022-10-29T03:31:03.954Z,12.53
2022-10-29T03:33:32.409Z,18.23
2022-10-29T03:36:07.030Z,11.33
2022-10-29T03:38:36.042Z,16.93
2022-10-29T03:41:09.387Z,19.23
2022-10-29T03:43:40.398Z,12.40
2022-10-29T03:46:09.035Z,12.40
2022-10-29T03:48:37.514Z,14.83
2022-10-29T03:51:07.366Z,14.50
2022-10-29T03:53:37.346Z,18.53
2022-10-29T03:56:06.290Z,16.20
2022-10-29T03:58:34.690Z,12.10
2022-10-29T04:01:10.820Z,21.13
2022-10-29T04:03:42.969Z,12.23
2022-10-29T04:06:16.568Z,14.13
2022-10-29T04:08:44.997Z,11.73
2022-10-29T04:11:14.929Z,13.27
2022-10-29T04:13:43.446Z,12.27
2022-10-29T04:16:11.770Z,11.87
2022-10-29T04:18:40.663Z,12.63
2022-10-29T04:29:36.685Z,18.97
2022-10-29T04:32:05.253Z,16.67
2022-10-29T04:34:33.594Z,13.73
2022-10-29T04:37:02.003Z,12.93
2022-10-29T04:39:30.419Z,11.47
2022-10-29T04:41:58.925Z,13.67
2022-10-29T04:44:27.253Z,10.73
2022-10-29T04:46:55.717Z,16.80
2022-10-29T04:49:24.284Z,14.20
2022-10-29T04:51:52.669Z,11.90
2022-10-29T04:54:21.113Z,13.70
2022-10-29T04:56:49.477Z,17.10
2022-10-29T04:59:17.838Z,13.40
2022-10-29T05:01:46.220Z,16.83
2022-10-29T05:04:14.623Z,18.17
2022-10-29T05:06:43.009Z,18.20
2022-10-29T05:09:11.422Z,20.13
2022-10-29T05:11:39.828Z,21.93
2022-10-29T05:14:08.222Z,20.83
2022-10-29T05:16:37.101Z,12.53
2022-10-29T05:19:06.724Z,14.07
2022-10-29T05:21:35.158Z,11.87
2022-10-29T05:24:03.568Z,16.80
2022-10-29T05:26:35.833Z,12.67
2022-10-29T05:29:04.375Z,14.63
2022-10-29T05:31:32.729Z,16.40
2022-10-29T05:34:01.130Z,15.33
2022-10-29T05:36:29.487Z,11.67
2022-10-29T05:38:57.879Z,13.10
2022-10-29T05:41:26.212Z,17.37
2022-10-29T05:43:54.734Z,16.67
2022-10-29T05:46:23.082Z,19.70
2022-10-29T05:48:51.451Z,13.57
2022-10-29T05:51:19.868Z,13.73
2022-10-29T05:53:49.675Z,23.63
2022-10-29T05:56:18.087Z,16.17
2022-10-29T05:58:46.489Z,15.20
2022-10-29T06:01:14.985Z,26.73
2022-10-29T06:03:43.480Z,15.50
2022-10-29T06:06:11.943Z,16.83
2022-10-29T06:08:40.321Z,24.67
2022-10-29T06:11:08.746Z,19.30
2022-10-29T06:13:37.311Z,16.80
2022-10-29T06:16:06.090Z,15.90
2022-10-29T06:18:34.544Z,21.80
2022-10-29T06:21:03.150Z,15.80
2022-10-29T06:23:31.583Z,22.37
2022-10-29T06:26:04.254Z,32.40
2022-10-29T06:28:34.740Z,36.20
2022-10-29T06:31:03.906Z,16.63
2022-10-29T06:33:32.396Z,32.10
2022-10-29T06:36:02.222Z,22.00
2022-10-29T06:38:30.730Z,21.77
2022-10-29T06:40:59.270Z,20.27
2022-10-29T06:43:27.712Z,17.30
2022-10-29T06:45:56.757Z,14.83
2022-10-29T06:48:25.334Z,15.87
2022-10-29T06:50:54.831Z,22.53
2022-10-29T06:53:23.227Z,17.67
2022-10-29T06:55:51.599Z,15.17
2022-10-29T06:58:21.377Z,19.57
2022-10-29T07:00:50.125Z,29.83
2022-10-29T07:03:21.901Z,25.30
2022-10-29T07:05:58.524Z,25.27
2022-10-29T07:08:27.378Z,34.00
2022-10-29T07:10:56.139Z,20.47
2022-10-29T07:13:24.744Z,22.33
2022-10-29T07:15:53.331Z,17.43
2022-10-29T07:18:21.828Z,15.17
2022-10-29T07:20:50.172Z,26.97
2022-10-29T07:23:18.779Z,16.47
2022-10-29T07:25:47.182Z,16.57
2022-10-29T07:28:18.025Z,26.00
2022-10-29T07:30:46.874Z,25.43
2022-10-29T07:33:16.396Z,21.43
2022-10-29T07:35:45.815Z,35.40
2022-10-29T07:38:14.371Z,32.93
2022-10-29T07:40:51.164Z,26.90
2022-10-29T07:43:20.710Z,31.83
2022-10-29T07:45:51.544Z,35.13
2022-10-29T07:48:21.571Z,26.10
2022-10-29T07:50:50.461Z,37.53
2022-10-29T07:53:19.197Z,26.67
2022-10-29T07:55:54.862Z,29.87
2022-10-29T07:58:24.185Z,32.50
2022-10-29T08:00:52.691Z,53.90
2022-10-29T08:03:21.290Z,28.67
2022-10-29T08:05:55.419Z,24.23
2022-10-29T08:08:25.798Z,54.90
2022-10-29T08:10:54.147Z,34.40
2022-10-29T08:13:22.482Z,53.53
2022-10-29T08:15:50.944Z,50.10
2022-10-29T08:18:19.893Z,34.30
2022-10-29T08:20:48.361Z,48.90
2022-10-29T08:23:16.973Z,69.47
2022-10-29T08:25:46.071Z,79.13
2022-10-29T08:28:16.245Z,47.03
2022-10-29T08:30:44.973Z,39.80
2022-10-29T08:33:13.368Z,55.33
2022-10-29T08:35:41.707Z,36.47
2022-10-29T08:38:10.619Z,59.07
2022-10-29T08:41:02.297Z,54.13
2022-10-29T08:44:17.987Z,37.20
2022-10-29T08:46:53.834Z,41.30
2022-10-29T08:49:36.083Z,60.77
2022-10-29T08:52:15.008Z,42.23
2022-10-29T08:54:47.057Z,53.10
2022-10-29T08:57:17.477Z,50.50
2022-10-29T09:02:36.662Z,34.97
2022-10-29T09:05:05.210Z,35.30
2022-10-29T09:08:02.226Z,29.50
2022-10-29T09:10:42.231Z,30.50
2022-10-29T09:14:03.051Z,34.03
2022-10-29T09:16:44.026Z,28.23
2022-10-29T09:19:28.815Z,25.60
2022-10-29T09:22:00.748Z,20.83
2022-10-29T09:24:49.316Z,33.13
2022-10-29T09:27:42.265Z,24.00
2022-10-29T09:30:21.221Z,62.60
2022-10-29T09:33:08.047Z,23.30
2022-10-29T09:35:47.509Z,35.60
2022-10-29T09:38:20.212Z,30.03
2022-10-29T09:40:48.834Z,35.73
2022-10-29T09:43:39.893Z,25.70
2022-10-29T09:46:34.447Z,20.33
2022-10-29T09:52:04.844Z,30.27
2022-10-29T09:54:33.950Z,33.97
2022-10-29T09:57:04.621Z,20.63
2022-10-29T09:59:45.602Z,24.20
2022-10-29T10:02:44.124Z,24.00
2022-10-29T10:05:16.857Z,27.80
2022-10-29T10:08:21.773Z,32.17
2022-10-29T10:10:58.699Z,30.23
2022-10-29T10:13:51.041Z,19.93
2022-10-29T10:16:27.884Z,28.43
2022-10-29T10:18:56.547Z,19.83
2022-10-29T10:21:33.908Z,31.70
2022-10-29T10:24:02.601Z,22.83
2022-10-29T10:26:44.315Z,21.37
2022-10-29T10:29:19.822Z,22.63
2022-10-29T10:32:11.309Z,19.57
2022-10-29T10:34:40.699Z,18.57
2022-10-29T10:37:12.318Z,35.93
2022-10-29T10:39:51.450Z,30.73
2022-10-29T10:42:33.284Z,18.00
2022-10-29T10:45:04.677Z,25.50
2022-10-29T10:47:37.471Z,17.20
2022-10-29T10:50:30.107Z,27.63
2022-10-29T10:53:17.369Z,18.00
2022-10-29T10:55:54.277Z,21.63
2022-10-29T10:58:48.709Z,22.23
2022-10-29T11:01:48.202Z,15.43
2022-10-29T11:04:23.078Z,28.50
2022-10-29T11:06:54.193Z,17.43
2022-10-29T11:09:47.433Z,29.17
2022-10-29T11:12:47.647Z,32.10
2022-10-29T11:15:47.319Z,47.33
2022-10-29T11:18:40.611Z,26.77
2022-10-29T11:21:20.549Z,21.17
2022-10-29T11:24:04.304Z,37.13
2022-10-29T11:27:08.963Z,26.10
2022-10-29T11:30:05.076Z,31.27
2022-10-29T11:32:54.542Z,19.17
2022-10-29T11:35:39.066Z,32.27
2022-10-29T11:38:34.328Z,18.00
2022-10-29T11:41:25.817Z,33.03
2022-10-29T11:43:54.821Z,25.27
2022-10-29T11:46:55.437Z,17.93
2022-10-29T11:49:48.474Z,14.53
2022-10-29T11:52:39.084Z,18.60
2022-10-29T11:55:29.027Z,19.93
2022-10-29T11:58:05.783Z,18.37
2022-10-29T12:01:02.207Z,17.50
2022-10-29T12:03:59.430Z,16.57
2022-10-29T12:06:34.102Z,21.20
2022-10-29T12:09:34.663Z,16.93
2022-10-29T12:12:13.679Z,22.53
2022-10-29T12:15:04.403Z,17.13
2022-10-29T12:17:47.293Z,35.87
2022-10-29T12:20:26.751Z,26.27
2022-10-29T12:23:03.928Z,35.50
2022-10-29T12:26:10.052Z,19.13
2022-10-29T12:29:01.643Z,19.70
2022-10-29T12:31:52.580Z,18.83
2022-10-29T12:34:51.354Z,19.50
2022-10-29T12:37:35.096Z,19.03
2022-10-29T12:40:23.963Z,17.20
2022-10-29T12:42:53.403Z,24.40
2022-10-29T12:45:27.521Z,17.73
2022-10-29T12:48:03.432Z,21.07
2022-10-29T12:50:40.784Z,20.50
2022-10-29T12:53:50.582Z,26.90
2022-10-29T12:56:19.718Z,22.40
2022-10-29T12:59:00.382Z,27.97
2022-10-29T13:02:09.734Z,22.10
2022-10-29T13:05:03.732Z,18.00
2022-10-29T13:07:32.215Z,21.20
2022-10-29T13:10:29.430Z,24.83
2022-10-29T13:13:00.801Z,19.97
2022-10-29T13:15:43.956Z,33.53
2022-10-29T13:18:41.293Z,17.77
2022-10-29T13:21:10.424Z,34.90
2022-10-29T13:23:41.664Z,26.77
2022-10-29T13:26:10.817Z,45.23
2022-10-29T13:28:39.113Z,32.07
2022-10-29T13:31:07.457Z,28.80
2022-10-29T13:33:35.762Z,41.37
2022-10-29T13:36:05.260Z,40.60
2022-10-29T13:39:04.382Z,34.40
2022-10-29T13:41:47.432Z,37.90
2022-10-29T13:44:25.555Z,36.50
2022-10-29T13:47:20.889Z,35.17
2022-10-29T13:49:51.599Z,28.80
2022-10-29T13:52:21.748Z,39.87
2022-10-29T13:54:55.927Z,32.37
2022-10-29T13:57:35.354Z,37.43
2022-10-29T14:00:13.739Z,39.00
2022-10-29T14:02:45.206Z,41.13
2022-10-29T14:05:16.484Z,27.60
2022-10-29T14:07:58.263Z,42.07
2022-10-29T14:10:58.949Z,33.60
2022-10-29T14:13:42.118Z,34.30
2022-10-29T14:16:16.305Z,43.53
2022-10-29T14:18:46.013Z,33.13
2022-10-29T14:21:23.093Z,37.40
2022-10-29T14:24:05.041Z,31.53
2022-10-29T14:26:36.508Z,43.77
2022-10-29T14:29:21.260Z,49.80
2022-10-29T14:32:08.575Z,46.07
2022-10-29T14:34:36.949Z,31.60
2022-10-29T14:37:13.653Z,45.40
2022-10-29T14:39:57.922Z,44.33
2022-10-29T14:42:49.431Z,38.03
2022-10-29T14:45:29.732Z,32.03
2022-10-29T14:48:10.417Z,39.53
2022-10-29T14:50:38.984Z,39.83
2022-10-29T14:53:23.599Z,45.43
2022-10-29T14:55:52.261Z,40.83
2022-10-29T14:58:34.981Z,52.23
2022-10-29T15:01:10.693Z,36.40
2022-10-29T15:03:39.352Z,39.40
2022-10-29T15:06:26.331Z,42.67
2022-10-29T15:09:04.612Z,47.70
2022-10-29T15:11:41.630Z,48.33
2022-10-29T15:14:34.235Z,33.30
2022-10-29T15:17:08.322Z,38.47
2022-10-29T15:19:37.070Z,44.63
2022-10-29T15:22:10.852Z,45.10
2022-10-29T15:24:39.853Z,48.33
2022-10-29T15:27:13.148Z,34.53
2022-10-29T15:29:43.258Z,38.53
2022-10-29T15:32:17.068Z,41.50
2022-10-29T15:34:58.148Z,37.20
2022-10-29T15:37:34.161Z,43.07
2022-10-29T15:40:13.351Z,29.80
2022-10-29T15:42:42.314Z,44.97
2022-10-29T15:47:55.471Z,38.13
2022-10-29T15:50:40.635Z,34.17
2022-10-29T15:53:15.391Z,41.00
2022-10-29T15:55:44.462Z,43.27
2022-10-29T15:58:20.534Z,32.83
2022-10-29T16:00:48.970Z,26.47
2022-10-29T16:03:23.503Z,38.47
2022-10-29T16:06:11.991Z,37.70
2022-10-29T16:08:43.508Z,27.97
2022-10-29T16:11:21.672Z,50.23
2022-10-29T16:13:54.873Z,40.87
2022-10-29T16:16:25.754Z,33.77
2022-10-29T16:18:55.430Z,38.97
2022-10-29T16:21:26.254Z,32.70
2022-10-29T16:23:55.101Z,37.33
2022-10-29T16:26:25.657Z,34.60
2022-10-29T16:28:54.270Z,36.43
2022-10-29T16:31:31.547Z,39.03
2022-10-29T16:34:02.373Z,58.63
2022-10-29T16:36:30.777Z,43.87
2022-10-29T16:38:59.242Z,47.03
2022-10-29T16:41:27.611Z,43.83
2022-10-29T16:43:55.985Z,37.27
2022-10-29T16:46:24.570Z,50.40
2022-10-29T16:48:52.949Z,45.27
2022-10-29T16:51:21.280Z,53.57
2022-10-29T16:53:49.672Z,49.33
2022-10-29T16:56:18.002Z,61.27
2022-10-29T16:58:46.373Z,57.30
2022-10-29T17:01:15.156Z,60.80
2022-10-29T17:03:43.708Z,55.93
2022-10-29T17:06:12.329Z,46.43
2022-10-29T17:08:41.542Z,55.20
2022-10-29T17:11:10.823Z,51.83
2022-10-29T17:13:39.849Z,44.47
2022-10-29T17:16:17.183Z,38.43
2022-10-29T17:18:45.853Z,51.33
2022-10-29T17:21:14.332Z,42.80
2022-10-29T17:23:42.731Z,51.50
2022-10-29T17:26:11.109Z,44.67
2022-10-29T17:28:40.355Z,56.03
2022-10-29T17:31:10.625Z,43.57
2022-10-29T17:33:39.116Z,50.60
2022-10-29T17:36:14.919Z,64.47
2022-10-29T17:38:43.435Z,53.17
2022-10-29T17:41:12.146Z,49.40
2022-10-29T17:43:40.493Z,61.20
2022-10-29T17:46:08.860Z,47.97
2022-10-29T17:48:37.651Z,54.87
2022-10-29T17:51:06.171Z,37.73
2022-10-29T17:53:34.509Z,38.40
2022-10-29T17:56:02.866Z,46.07
2022-10-29T17:58:32.005Z,52.37
2022-10-29T18:01:11.491Z,40.00
2022-10-29T18:03:40.127Z,47.40
2022-10-29T18:06:11.012Z,35.37
2022-10-29T18:08:41.697Z,49.07
2022-10-29T18:11:17.656Z,47.83
2022-10-29T18:13:47.340Z,39.80
2022-10-29T18:16:20.753Z,39.77
2022-10-29T18:19:01.074Z,46.93
2022-10-29T18:21:31.799Z,47.20
2022-10-29T18:24:00.260Z,50.10
2022-10-29T18:26:34.633Z,52.73
2022-10-29T18:29:06.374Z,41.43
2022-10-29T18:31:35.713Z,35.03
2022-10-29T18:34:06.908Z,44.90
2022-10-29T18:36:39.980Z,36.63
2022-10-29T18:39:08.712Z,59.40
2022-10-29T18:41:37.589Z,52.53
2022-10-29T18:44:06.128Z,46.40
2022-10-29T18:46:34.963Z,52.13
2022-10-29T18:49:03.464Z,50.53
2022-10-29T18:51:33.239Z,39.10
2022-10-29T18:54:01.957Z,41.13
2022-10-29T18:56:31.710Z,36.93
2022-10-29T18:59:01.496Z,44.27
2022-10-29T19:01:32.831Z,45.87
2022-10-29T19:04:03.682Z,40.43
2022-10-29T19:06:34.577Z,34.17
2022-10-29T19:09:05.015Z,47.30
2022-10-29T19:11:33.530Z,44.73
2022-10-29T19:14:04.535Z,37.83
2022-10-29T19:16:34.428Z,45.73
2022-10-29T19:21:39.703Z,30.10
2022-10-29T19:24:08.928Z,33.07
2022-10-29T19:26:37.651Z,38.73
2022-10-29T19:29:07.695Z,39.17
2022-10-29T19:31:37.291Z,47.20
2022-10-29T19:34:07.469Z,36.27
2022-10-29T19:36:37.985Z,34.90
2022-10-29T19:39:06.810Z,35.10
2022-10-29T19:41:35.239Z,36.90
2022-10-29T19:44:04.065Z,39.37
2022-10-29T19:46:32.441Z,33.47
2022-10-29T19:49:01.478Z,38.53
2022-10-29T19:51:30.357Z,30.20
2022-10-29T19:53:59.471Z,27.17
2022-10-29T19:56:27.869Z,32.60
2022-10-29T19:58:57.281Z,35.03
2022-10-29T20:01:25.929Z,39.83
2022-10-29T20:03:54.417Z,31.93
2022-10-29T20:06:22.860Z,29.07
2022-10-29T20:08:51.639Z,27.00
2022-10-29T20:11:20.215Z,26.60
2022-10-29T20:13:48.731Z,32.87
2022-10-29T20:16:19.774Z,27.63
2022-10-29T20:18:49.121Z,31.27
2022-10-29T20:21:18.397Z,45.20
2022-10-29T20:23:46.921Z,31.97
2022-10-29T20:26:15.453Z,28.93
2022-10-29T20:28:43.861Z,27.63
2022-10-29T20:31:18.396Z,29.47
2022-10-29T20:33:57.900Z,30.50
2022-10-29T20:36:28.993Z,33.60
2022-10-29T20:38:57.533Z,31.00
2022-10-29T20:41:26.013Z,28.77
2022-10-29T20:43:59.467Z,35.03
2022-10-29T20:46:28.260Z,29.73
2022-10-29T20:48:56.675Z,31.20
2022-10-29T20:51:25.844Z,37.93
2022-10-29T20:53:55.313Z,25.57
2022-10-29T20:56:25.880Z,33.00
2022-10-29T20:58:54.628Z,23.20
2022-10-29T21:01:25.237Z,27.60
2022-10-29T21:03:54.005Z,29.63
2022-10-29T21:06:23.206Z,25.60
2022-10-29T21:08:53.062Z,27.50
2022-10-29T21:11:22.750Z,31.53
2022-10-29T21:13:51.804Z,28.07
2022-10-29T21:16:21.846Z,24.27
2022-10-29T21:18:52.846Z,25.30
2022-10-29T21:21:21.267Z,29.37
2022-10-29T21:23:49.724Z,26.40
2022-10-29T21:26:23.317Z,23.60
2022-10-29T21:28:53.302Z,29.80
2022-10-29T21:31:22.651Z,31.13
2022-10-29T21:33:52.496Z,29.70
2022-10-29T21:36:21.156Z,20.70
2022-10-29T21:38:49.782Z,18.13
2022-10-29T21:41:19.214Z,25.63
2022-10-29T21:43:47.596Z,25.20
2022-10-29T21:46:16.027Z,23.60
2022-10-29T21:48:44.461Z,20.90
2022-10-29T21:51:14.576Z,18.37
2022-10-29T21:53:43.346Z,21.73
2022-10-29T21:56:14.764Z,25.70
2022-10-29T21:58:44.218Z,19.60
2022-10-29T22:01:16.691Z,15.60
2022-10-29T22:03:47.415Z,21.10
2022-10-29T22:06:20.817Z,16.30
2022-10-29T22:08:58.160Z,16.93
2022-10-29T22:11:28.386Z,24.80
2022-10-29T22:13:56.996Z,18.53
2022-10-29T22:16:25.402Z,19.07
2022-10-29T22:18:55.796Z,17.47
2022-10-29T22:21:28.634Z,17.03
2022-10-29T22:24:00.206Z,17.33
2022-10-29T22:26:31.883Z,20.90
2022-10-29T22:29:00.679Z,17.77
2022-10-29T22:31:29.195Z,20.60
2022-10-29T22:33:58.732Z,24.30
2022-10-29T22:36:28.999Z,20.20
2022-10-29T22:39:02.961Z,17.63
2022-10-29T22:41:31.956Z,17.83
2022-10-29T22:44:01.801Z,22.70
2022-10-29T22:46:32.013Z,19.13
2022-10-29T22:49:04.425Z,19.87
2022-10-29T22:51:35.635Z,19.00
2022-10-29T22:54:04.600Z,24.30
2022-10-29T22:56:35.325Z,24.07
2022-10-29T22:59:06.794Z,19.80
2022-10-29T23:01:42.379Z,22.90
2022-10-29T23:04:14.700Z,20.30
2022-10-29T23:06:43.097Z,22.83
2022-10-29T23:09:11.570Z,23.27
2022-10-29T23:11:40.287Z,20.53
2022-10-29T23:14:08.762Z,16.53
2022-10-29T23:16:37.783Z,18.87
2022-10-29T23:19:07.006Z,22.97
2022-10-29T23:21:35.392Z,30.67
2022-10-29T23:24:03.823Z,23.00
2022-10-29T23:26:32.467Z,22.23
2022-10-29T23:29:00.802Z,26.97
2022-10-29T23:31:30.093Z,25.83
2022-10-29T23:33:59.757Z,25.93
2022-10-29T23:36:29.225Z,24.77
2022-10-29T23:39:02.488Z,25.20
2022-10-29T23:41:32.188Z,28.23
2022-10-29T23:44:00.686Z,29.57
2022-10-29T23:46:29.205Z,31.13
2022-10-29T23:48:57.611Z,46.77
2022-10-29T23:51:26.025Z,39.47
2022-10-29T23:53:57.432Z,35.23
2022-10-29T23:56:26.663Z,26.67
2022-10-29T23:58:55.162Z,38.97
